sensor_id;sensor_type;location;lat;lon;timestamp;pressure;altitude;pressure_sealevel;temperature;humidity
59829;BME280;45708;51.848;107.620;2024-03-06T00:01:13;95520.06;;;-14.83;64.98
59829;BME280;45708;51.848;107.620;2024-03-06T00:06:14;95525.66;;;-14.51;66.54
59829;BME280;45708;51.848;107.620;2024-03-06T00:11:15;95524.59;;;-14.03;66.00
59829;BME280;45708;51.848;107.620;2024-03-06T00:16:16;95507.03;;;-13.47;65.49
59829;BME280;45708;51.848;107.620;2024-03-06T00:21:17;95519.75;;;-12.70;64.71
59829;BME280;45708;51.848;107.620;2024-03-06T00:26:18;95529.31;;;-11.84;64.19
59829;BME280;45708;51.848;107.620;2024-03-06T00:31:19;95530.81;;;-12.34;64.04
59829;BME280;45708;51.848;107.620;2024-03-06T00:36:19;95542.97;;;-12.21;64.06
59829;BME280;45708;51.848;107.620;2024-03-06T00:41:20;95541.44;;;-12.07;63.41
59829;BME280;45708;51.848;107.620;2024-03-06T00:46:21;95542.22;;;-10.36;63.56
59829;BME280;45708;51.848;107.620;2024-03-06T00:51:22;95533.41;;;-7.45;60.80
59829;BME280;45708;51.848;107.620;2024-03-06T00:56:23;95519.91;;;-5.85;58.69
59829;BME280;45708;51.848;107.620;2024-03-06T01:01:23;95539.84;;;-5.28;57.78
59829;BME280;45708;51.848;107.620;2024-03-06T01:06:24;95540.91;;;-4.73;57.66
59829;BME280;45708;51.848;107.620;2024-03-06T01:11:25;95546.03;;;-3.29;56.40
59829;BME280;45708;51.848;107.620;2024-03-06T01:16:26;95530.31;;;-1.43;54.55
59829;BME280;45708;51.848;107.620;2024-03-06T01:21:27;95527.19;;;-1.46;52.47
59829;BME280;45708;51.848;107.620;2024-03-06T01:26:28;95541.25;;;-2.60;52.72
59829;BME280;45708;51.848;107.620;2024-03-06T01:31:30;95539.03;;;-4.71;53.74
59829;BME280;45708;51.848;107.620;2024-03-06T01:36:31;95552.19;;;-6.54;55.83
59829;BME280;45708;51.848;107.620;2024-03-06T01:41:31;95539.25;;;-6.65;55.17
59829;BME280;45708;51.848;107.620;2024-03-06T01:46:32;95551.34;;;-6.41;54.74
59829;BME280;45708;51.848;107.620;2024-03-06T01:51:33;95554.13;;;-6.95;54.21
59829;BME280;45708;51.848;107.620;2024-03-06T01:56:35;95548.22;;;-6.21;54.33
59829;BME280;45708;51.848;107.620;2024-03-06T02:01:37;95540.69;;;-5.16;53.26
59829;BME280;45708;51.848;107.620;2024-03-06T02:06:41;95548.44;;;-4.03;51.73
59829;BME280;45708;51.848;107.620;2024-03-06T02:11:44;95549.00;;;-4.77;51.87
59829;BME280;45708;51.848;107.620;2024-03-06T02:16:45;95559.34;;;-7.10;53.06
59829;BME280;45708;51.848;107.620;2024-03-06T02:21:46;95555.50;;;-8.66;55.64
59829;BME280;45708;51.848;107.620;2024-03-06T02:26:47;95551.63;;;-9.01;55.88
59829;BME280;45708;51.848;107.620;2024-03-06T02:31:48;95556.59;;;-9.28;56.05
59829;BME280;45708;51.848;107.620;2024-03-06T02:36:50;95553.31;;;-9.30;55.89
59829;BME280;45708;51.848;107.620;2024-03-06T02:41:51;95556.34;;;-9.24;56.44
59829;BME280;45708;51.848;107.620;2024-03-06T02:46:52;95554.94;;;-8.99;55.95
59829;BME280;45708;51.848;107.620;2024-03-06T02:51:53;95557.13;;;-8.93;56.15
59829;BME280;45708;51.848;107.620;2024-03-06T02:56:54;95549.81;;;-8.99;56.57
59829;BME280;45708;51.848;107.620;2024-03-06T03:01:55;95548.00;;;-8.97;56.80
59829;BME280;45708;51.848;107.620;2024-03-06T03:06:56;95540.88;;;-8.92;57.16
59829;BME280;45708;51.848;107.620;2024-03-06T03:11:57;95526.97;;;-8.60;57.33
59829;BME280;45708;51.848;107.620;2024-03-06T03:16:58;95550.94;;;-8.61;56.64
59829;BME280;45708;51.848;107.620;2024-03-06T03:21:59;95546.16;;;-8.67;56.74
59829;BME280;45708;51.848;107.620;2024-03-06T03:27:00;95542.88;;;-8.69;57.25
59829;BME280;45708;51.848;107.620;2024-03-06T03:32:01;95542.44;;;-8.75;57.36
59829;BME280;45708;51.848;107.620;2024-03-06T03:37:02;95532.66;;;-8.54;57.52
59829;BME280;45708;51.848;107.620;2024-03-06T03:42:03;95544.34;;;-8.36;57.61
59829;BME280;45708;51.848;107.620;2024-03-06T03:47:04;95536.38;;;-8.05;57.56
59829;BME280;45708;51.848;107.620;2024-03-06T03:52:04;95530.84;;;-7.45;57.73
59829;BME280;45708;51.848;107.620;2024-03-06T03:57:05;95525.69;;;-6.92;56.82
59829;BME280;45708;51.848;107.620;2024-03-06T04:02:06;95533.91;;;-6.75;57.42
59829;BME280;45708;51.848;107.620;2024-03-06T04:07:08;95516.81;;;-6.37;57.15
59829;BME280;45708;51.848;107.620;2024-03-06T04:12:09;95519.81;;;-6.07;56.83
59829;BME280;45708;51.848;107.620;2024-03-06T04:17:10;95510.41;;;-6.32;57.33
59829;BME280;45708;51.848;107.620;2024-03-06T04:22:11;95507.41;;;-6.26;56.97
59829;BME280;45708;51.848;107.620;2024-03-06T04:27:12;95486.50;;;-6.08;56.68
59829;BME280;45708;51.848;107.620;2024-03-06T04:32:12;95494.09;;;-6.07;57.26
59829;BME280;45708;51.848;107.620;2024-03-06T04:37:13;95478.72;;;-6.20;57.37
59829;BME280;45708;51.848;107.620;2024-03-06T04:42:14;95498.81;;;-5.77;57.06
59829;BME280;45708;51.848;107.620;2024-03-06T04:47:15;95494.00;;;-5.46;56.69
59829;BME280;45708;51.848;107.620;2024-03-06T04:52:16;95492.13;;;-5.44;56.64
59829;BME280;45708;51.848;107.620;2024-03-06T04:57:17;95481.88;;;-5.33;56.98
59829;BME280;45708;51.848;107.620;2024-03-06T05:02:17;95482.28;;;-5.15;57.21
59829;BME280;45708;51.848;107.620;2024-03-06T05:07:18;95479.81;;;-5.17;57.18
59829;BME280;45708;51.848;107.620;2024-03-06T05:12:19;95478.66;;;-5.13;56.77
59829;BME280;45708;51.848;107.620;2024-03-06T05:17:20;95480.19;;;-5.10;57.09
59829;BME280;45708;51.848;107.620;2024-03-06T05:22:21;95471.66;;;-5.00;57.24
59829;BME280;45708;51.848;107.620;2024-03-06T05:27:22;95465.59;;;-4.65;57.41
59829;BME280;45708;51.848;107.620;2024-03-06T05:32:23;95454.81;;;-4.37;56.95
59829;BME280;45708;51.848;107.620;2024-03-06T05:37:24;95463.22;;;-4.12;57.02
59829;BME280;45708;51.848;107.620;2024-03-06T05:42:25;95459.59;;;-3.78;56.83
59829;BME280;45708;51.848;107.620;2024-03-06T05:47:26;95451.84;;;-3.46;56.97
59829;BME280;45708;51.848;107.620;2024-03-06T05:52:27;95441.63;;;-3.06;55.92
59829;BME280;45708;51.848;107.620;2024-03-06T05:57:27;95440.25;;;-3.10;55.98
59829;BME280;45708;51.848;107.620;2024-03-06T06:02:28;95435.41;;;-3.24;56.18
59829;BME280;45708;51.848;107.620;2024-03-06T06:07:29;95432.13;;;-3.26;55.98
59829;BME280;45708;51.848;107.620;2024-03-06T06:12:30;95442.19;;;-3.44;56.03
59829;BME280;45708;51.848;107.620;2024-03-06T06:17:31;95427.69;;;-3.77;55.75
59829;BME280;45708;51.848;107.620;2024-03-06T06:22:31;95429.25;;;-3.64;56.14
59829;BME280;45708;51.848;107.620;2024-03-06T06:27:33;95425.44;;;-3.49;55.94
59829;BME280;45708;51.848;107.620;2024-03-06T06:32:34;95410.50;;;-3.25;55.46
59829;BME280;45708;51.848;107.620;2024-03-06T06:37:35;95410.97;;;-2.89;55.41
59829;BME280;45708;51.848;107.620;2024-03-06T06:42:36;95405.91;;;-2.70;55.24
59829;BME280;45708;51.848;107.620;2024-03-06T06:47:37;95409.59;;;-2.63;54.83
59829;BME280;45708;51.848;107.620;2024-03-06T06:52:38;95399.56;;;-2.47;54.48
59829;BME280;45708;51.848;107.620;2024-03-06T06:57:39;95393.16;;;-2.52;53.96
59829;BME280;45708;51.848;107.620;2024-03-06T07:02:40;95346.47;;;-2.60;54.07
59829;BME280;45708;51.848;107.620;2024-03-06T07:07:41;95398.53;;;-2.25;53.76
59829;BME280;45708;51.848;107.620;2024-03-06T07:12:42;95393.00;;;-2.20;53.88
59829;BME280;45708;51.848;107.620;2024-03-06T07:17:42;95400.16;;;-2.33;53.23
59829;BME280;45708;51.848;107.620;2024-03-06T07:22:43;95381.59;;;-2.58;53.26
59829;BME280;45708;51.848;107.620;2024-03-06T07:27:44;95395.22;;;-2.56;53.83
59829;BME280;45708;51.848;107.620;2024-03-06T07:32:45;95346.09;;;-2.86;53.71
59829;BME280;45708;51.848;107.620;2024-03-06T07:37:46;95388.09;;;-2.63;52.99
59829;BME280;45708;51.848;107.620;2024-03-06T07:42:47;95378.94;;;-2.77;53.47
59829;BME280;45708;51.848;107.620;2024-03-06T07:47:48;95318.81;;;-3.10;52.93
59829;BME280;45708;51.848;107.620;2024-03-06T07:52:48;95376.34;;;-2.77;52.87
59829;BME280;45708;51.848;107.620;2024-03-06T07:57:49;95386.16;;;-2.71;52.70
59829;BME280;45708;51.848;107.620;2024-03-06T08:02:50;95379.25;;;-2.61;52.37
59829;BME280;45708;51.848;107.620;2024-03-06T08:07:51;95374.06;;;-2.61;52.76
59829;BME280;45708;51.848;107.620;2024-03-06T08:12:52;95373.38;;;-2.63;52.54
59829;BME280;45708;51.848;107.620;2024-03-06T08:17:53;95362.28;;;-2.54;52.55
59829;BME280;45708;51.848;107.620;2024-03-06T08:22:54;95369.84;;;-2.62;53.25
59829;BME280;45708;51.848;107.620;2024-03-06T08:27:56;95360.31;;;-2.71;52.82
59829;BME280;45708;51.848;107.620;2024-03-06T08:32:57;95363.28;;;-2.76;52.59
59829;BME280;45708;51.848;107.620;2024-03-06T08:37:57;95368.47;;;-2.66;52.98
59829;BME280;45708;51.848;107.620;2024-03-06T08:42:58;95352.28;;;-2.68;51.89
59829;BME280;45708;51.848;107.620;2024-03-06T08:47:59;95352.91;;;-2.85;52.67
59829;BME280;45708;51.848;107.620;2024-03-06T08:53:00;95363.47;;;-2.98;52.84
59829;BME280;45708;51.848;107.620;2024-03-06T08:58:01;95357.69;;;-3.11;52.50
59829;BME280;45708;51.848;107.620;2024-03-06T09:03:01;95361.69;;;-3.28;52.61
59829;BME280;45708;51.848;107.620;2024-03-06T09:08:02;95366.03;;;-3.28;52.81
59829;BME280;45708;51.848;107.620;2024-03-06T09:13:03;95348.97;;;-3.20;52.63
59829;BME280;45708;51.848;107.620;2024-03-06T09:18:04;95344.91;;;-3.13;52.54
59829;BME280;45708;51.848;107.620;2024-03-06T09:23:05;95348.72;;;-3.17;52.20
59829;BME280;45708;51.848;107.620;2024-03-06T09:28:06;95355.69;;;-3.28;52.60
59829;BME280;45708;51.848;107.620;2024-03-06T09:33:07;95335.22;;;-3.41;52.73
59829;BME280;45708;51.848;107.620;2024-03-06T09:38:08;95346.97;;;-3.37;52.59
59829;BME280;45708;51.848;107.620;2024-03-06T09:43:08;95351.81;;;-3.44;52.97
59829;BME280;45708;51.848;107.620;2024-03-06T09:48:11;95349.88;;;-3.51;52.63
59829;BME280;45708;51.848;107.620;2024-03-06T09:53:12;95361.88;;;-3.61;52.71
59829;BME280;45708;51.848;107.620;2024-03-06T09:58:15;95364.28;;;-3.70;52.84
59829;BME280;45708;51.848;107.620;2024-03-06T10:03:16;95359.53;;;-3.85;52.24
59829;BME280;45708;51.848;107.620;2024-03-06T10:08:19;95375.91;;;-3.96;52.65
59829;BME280;45708;51.848;107.620;2024-03-06T10:13:27;95365.91;;;-4.21;52.87
59829;BME280;45708;51.848;107.620;2024-03-06T10:18:30;95385.13;;;-4.25;53.09
59829;BME280;45708;51.848;107.620;2024-03-06T10:23:34;95376.88;;;-4.40;52.72
59829;BME280;45708;51.848;107.620;2024-03-06T10:28:35;95389.44;;;-4.58;53.40
59829;BME280;45708;51.848;107.620;2024-03-06T10:33:35;95399.06;;;-4.71;53.67
59829;BME280;45708;51.848;107.620;2024-03-06T10:38:41;95399.66;;;-4.90;53.06
59829;BME280;45708;51.848;107.620;2024-03-06T10:43:47;95410.53;;;-5.09;53.55
59829;BME280;45708;51.848;107.620;2024-03-06T10:48:50;95412.38;;;-5.33;53.75
59829;BME280;45708;51.848;107.620;2024-03-06T10:53:53;95419.81;;;-5.53;53.33
59829;BME280;45708;51.848;107.620;2024-03-06T10:58:56;95420.94;;;-5.68;53.67
59829;BME280;45708;51.848;107.620;2024-03-06T11:04:00;95410.13;;;-5.95;54.19
59829;BME280;45708;51.848;107.620;2024-03-06T11:09:01;95413.56;;;-6.07;54.91
59829;BME280;45708;51.848;107.620;2024-03-06T11:14:04;95430.47;;;-6.16;54.65
59829;BME280;45708;51.848;107.620;2024-03-06T11:19:08;95433.75;;;-6.38;55.61
59829;BME280;45708;51.848;107.620;2024-03-06T11:24:18;95432.69;;;-6.59;55.96
59829;BME280;45708;51.848;107.620;2024-03-06T11:29:19;95439.28;;;-6.81;55.58
59829;BME280;45708;51.848;107.620;2024-03-06T11:34:22;95441.25;;;-6.97;56.69
59829;BME280;45708;51.848;107.620;2024-03-06T11:39:23;95438.19;;;-7.15;56.77
59829;BME280;45708;51.848;107.620;2024-03-06T11:44:23;95447.09;;;-7.33;56.49
59829;BME280;45708;51.848;107.620;2024-03-06T11:49:29;95450.06;;;-7.52;56.97
59829;BME280;45708;51.848;107.620;2024-03-06T11:54:31;95449.00;;;-7.75;57.16
59829;BME280;45708;51.848;107.620;2024-03-06T11:59:34;95437.66;;;-7.98;57.35
59829;BME280;45708;51.848;107.620;2024-03-06T12:04:35;95455.25;;;-8.06;57.36
59829;BME280;45708;51.848;107.620;2024-03-06T12:09:37;95461.19;;;-8.18;57.53
59829;BME280;45708;51.848;107.620;2024-03-06T12:14:38;95459.38;;;-8.30;57.50
59829;BME280;45708;51.848;107.620;2024-03-06T12:19:42;95467.25;;;-8.33;57.76
59829;BME280;45708;51.848;107.620;2024-03-06T12:24:42;95470.22;;;-8.39;57.83
59829;BME280;45708;51.848;107.620;2024-03-06T12:29:44;95464.50;;;-8.57;57.72
59829;BME280;45708;51.848;107.620;2024-03-06T12:34:56;95457.38;;;-8.66;58.10
59829;BME280;45708;51.848;107.620;2024-03-06T12:39:56;95476.31;;;-8.69;58.16
59829;BME280;45708;51.848;107.620;2024-03-06T12:44:57;95476.16;;;-8.80;58.41
59829;BME280;45708;51.848;107.620;2024-03-06T12:49:58;95483.97;;;-8.83;58.42
59829;BME280;45708;51.848;107.620;2024-03-06T12:54:59;95483.53;;;-8.90;58.72
59829;BME280;45708;51.848;107.620;2024-03-06T13:00:00;95486.56;;;-8.97;59.08
59829;BME280;45708;51.848;107.620;2024-03-06T13:05:01;95494.88;;;-9.08;59.50
59829;BME280;45708;51.848;107.620;2024-03-06T13:10:03;95497.16;;;-9.17;59.30
59829;BME280;45708;51.848;107.620;2024-03-06T13:15:04;95491.28;;;-9.34;58.79
59829;BME280;45708;51.848;107.620;2024-03-06T13:20:06;95500.22;;;-9.41;59.52
59829;BME280;45708;51.848;107.620;2024-03-06T13:25:08;95501.91;;;-9.56;60.29
59829;BME280;45708;51.848;107.620;2024-03-06T13:30:09;95499.69;;;-9.62;58.90
59829;BME280;45708;51.848;107.620;2024-03-06T13:35:10;95422.50;;;-10.13;60.34
59829;BME280;45708;51.848;107.620;2024-03-06T13:40:11;95498.66;;;-9.73;60.57
59829;BME280;45708;51.848;107.620;2024-03-06T13:45:12;95475.41;;;-9.99;60.04
59829;BME280;45708;51.848;107.620;2024-03-06T13:50:14;95487.09;;;-9.95;60.64
59829;BME280;45708;51.848;107.620;2024-03-06T13:55:17;95490.88;;;-10.02;59.71
59829;BME280;45708;51.848;107.620;2024-03-06T14:00:18;95492.41;;;-10.14;60.27
59829;BME280;45708;51.848;107.620;2024-03-06T14:05:19;95488.22;;;-10.30;60.92
59829;BME280;45708;51.848;107.620;2024-03-06T14:10:19;95481.75;;;-10.36;60.61
59829;BME280;45708;51.848;107.620;2024-03-06T14:15:20;95495.63;;;-10.41;60.80
59829;BME280;45708;51.848;107.620;2024-03-06T14:20:22;95496.72;;;-10.46;61.02
59829;BME280;45708;51.848;107.620;2024-03-06T14:25:23;95500.34;;;-10.50;60.48
59829;BME280;45708;51.848;107.620;2024-03-06T14:30:24;95503.97;;;-10.54;61.09
59829;BME280;45708;51.848;107.620;2024-03-06T14:35:25;95509.72;;;-10.66;61.36
59829;BME280;45708;51.848;107.620;2024-03-06T14:40:25;95502.63;;;-10.77;62.04
59829;BME280;45708;51.848;107.620;2024-03-06T14:45:26;95510.38;;;-10.78;61.28
59829;BME280;45708;51.848;107.620;2024-03-06T14:50:27;95488.19;;;-10.93;61.02
59829;BME280;45708;51.848;107.620;2024-03-06T14:55:28;95507.06;;;-10.96;62.33
59829;BME280;45708;51.848;107.620;2024-03-06T15:00:29;95501.28;;;-10.99;62.55
59829;BME280;45708;51.848;107.620;2024-03-06T15:05:29;95509.41;;;-11.09;62.72
59829;BME280;45708;51.848;107.620;2024-03-06T15:10:30;95513.00;;;-11.13;61.62
59829;BME280;45708;51.848;107.620;2024-03-06T15:15:31;95520.25;;;-11.21;62.46
59829;BME280;45708;51.848;107.620;2024-03-06T15:20:32;95516.25;;;-11.26;61.38
59829;BME280;45708;51.848;107.620;2024-03-06T15:25:33;95524.88;;;-11.29;61.66
59829;BME280;45708;51.848;107.620;2024-03-06T15:30:34;95518.59;;;-11.39;61.76
59829;BME280;45708;51.848;107.620;2024-03-06T15:35:35;95523.09;;;-11.44;62.44
59829;BME280;45708;51.848;107.620;2024-03-06T15:40:36;95530.44;;;-11.55;62.69
59829;BME280;45708;51.848;107.620;2024-03-06T15:45:37;95525.34;;;-11.55;62.23
59829;BME280;45708;51.848;107.620;2024-03-06T15:50:37;95540.78;;;-11.41;61.93
59829;BME280;45708;51.848;107.620;2024-03-06T15:55:39;95530.56;;;-11.41;62.92
59829;BME280;45708;51.848;107.620;2024-03-06T16:00:41;95524.81;;;-11.45;63.02
59829;BME280;45708;51.848;107.620;2024-03-06T16:05:41;95535.25;;;-11.49;62.83
59829;BME280;45708;51.848;107.620;2024-03-06T16:10:42;95529.09;;;-11.45;62.82
59829;BME280;45708;51.848;107.620;2024-03-06T16:15:43;95515.59;;;-11.47;62.49
59829;BME280;45708;51.848;107.620;2024-03-06T16:20:44;95517.56;;;-11.52;62.36
59829;BME280;45708;51.848;107.620;2024-03-06T16:25:45;95511.78;;;-11.73;62.92
59829;BME280;45708;51.848;107.620;2024-03-06T16:30:46;95510.16;;;-11.91;63.43
59829;BME280;45708;51.848;107.620;2024-03-06T16:35:46;95520.84;;;-12.02;62.89
59829;BME280;45708;51.848;107.620;2024-03-06T16:40:47;95512.56;;;-12.24;63.22
59829;BME280;45708;51.848;107.620;2024-03-06T16:45:52;95500.00;;;-12.46;63.30
59829;BME280;45708;51.848;107.620;2024-03-06T16:50:53;95505.66;;;-12.40;63.25
59829;BME280;45708;51.848;107.620;2024-03-06T16:55:54;95509.97;;;-12.42;63.46
59829;BME280;45708;51.848;107.620;2024-03-06T17:00:55;95490.19;;;-12.54;63.48
59829;BME280;45708;51.848;107.620;2024-03-06T17:05:55;95502.84;;;-12.52;63.15
59829;BME280;45708;51.848;107.620;2024-03-06T17:10:56;95504.09;;;-12.61;63.53
59829;BME280;45708;51.848;107.620;2024-03-06T17:15:57;95503.59;;;-12.69;63.60
59829;BME280;45708;51.848;107.620;2024-03-06T17:20:58;95496.41;;;-12.78;63.63
59829;BME280;45708;51.848;107.620;2024-03-06T17:25:58;95503.38;;;-12.83;63.97
59829;BME280;45708;51.848;107.620;2024-03-06T17:30:59;95507.44;;;-12.98;64.13
59829;BME280;45708;51.848;107.620;2024-03-06T17:36:00;95496.38;;;-13.16;64.07
59829;BME280;45708;51.848;107.620;2024-03-06T17:41:01;95499.66;;;-13.33;64.44
59829;BME280;45708;51.848;107.620;2024-03-06T17:46:02;95510.50;;;-13.29;64.44
59829;BME280;45708;51.848;107.620;2024-03-06T17:51:03;95488.56;;;-13.50;63.97
59829;BME280;45708;51.848;107.620;2024-03-06T17:56:04;95515.75;;;-13.53;64.27
59829;BME280;45708;51.848;107.620;2024-03-06T18:01:05;95515.06;;;-13.56;64.47
59829;BME280;45708;51.848;107.620;2024-03-06T18:06:06;95516.78;;;-13.57;63.99
59829;BME280;45708;51.848;107.620;2024-03-06T18:11:07;95501.75;;;-13.63;64.75
59829;BME280;45708;51.848;107.620;2024-03-06T18:16:08;95513.47;;;-13.59;64.59
59829;BME280;45708;51.848;107.620;2024-03-06T18:21:09;95512.50;;;-13.56;64.78
59829;BME280;45708;51.848;107.620;2024-03-06T18:26:10;95514.22;;;-13.57;64.58
59829;BME280;45708;51.848;107.620;2024-03-06T18:31:11;95518.66;;;-13.62;64.65
59829;BME280;45708;51.848;107.620;2024-03-06T18:36:12;95528.00;;;-13.62;64.06
59829;BME280;45708;51.848;107.620;2024-03-06T18:41:12;95514.91;;;-13.73;64.63
59829;BME280;45708;51.848;107.620;2024-03-06T18:46:14;95529.00;;;-13.66;64.72
59829;BME280;45708;51.848;107.620;2024-03-06T18:51:15;95527.50;;;-13.70;65.56
59829;BME280;45708;51.848;107.620;2024-03-06T18:56:15;95526.03;;;-13.76;64.79
59829;BME280;45708;51.848;107.620;2024-03-06T19:01:16;95526.84;;;-13.75;65.42
59829;BME280;45708;51.848;107.620;2024-03-06T19:06:17;95532.75;;;-13.75;64.50
59829;BME280;45708;51.848;107.620;2024-03-06T19:11:18;95516.75;;;-13.97;64.99
59829;BME280;45708;51.848;107.620;2024-03-06T19:16:20;95525.25;;;-13.98;65.77
59829;BME280;45708;51.848;107.620;2024-03-06T19:21:20;95524.66;;;-14.05;65.88
59829;BME280;45708;51.848;107.620;2024-03-06T19:26:21;95526.38;;;-14.05;64.47
59829;BME280;45708;51.848;107.620;2024-03-06T19:31:22;95518.22;;;-14.14;65.18
59829;BME280;45708;51.848;107.620;2024-03-06T19:36:23;95527.63;;;-14.16;65.08
59829;BME280;45708;51.848;107.620;2024-03-06T19:41:24;95533.78;;;-14.21;64.78
59829;BME280;45708;51.848;107.620;2024-03-06T19:46:24;95534.69;;;-14.24;66.22
59829;BME280;45708;51.848;107.620;2024-03-06T19:51:25;95533.09;;;-14.26;65.58
59829;BME280;45708;51.848;107.620;2024-03-06T19:56:26;95528.22;;;-14.31;64.85
59829;BME280;45708;51.848;107.620;2024-03-06T20:01:27;95525.88;;;-14.35;65.32
59829;BME280;45708;51.848;107.620;2024-03-06T20:06:28;95525.16;;;-14.39;65.26
59829;BME280;45708;51.848;107.620;2024-03-06T20:11:29;95532.84;;;-14.42;66.51
59829;BME280;45708;51.848;107.620;2024-03-06T20:16:29;95523.75;;;-14.46;64.97
59829;BME280;45708;51.848;107.620;2024-03-06T20:21:33;95524.13;;;-14.55;65.77
59829;BME280;45708;51.848;107.620;2024-03-06T20:26:34;95534.25;;;-14.55;65.65
59829;BME280;45708;51.848;107.620;2024-03-06T20:31:35;95525.38;;;-14.67;65.98
59829;BME280;45708;51.848;107.620;2024-03-06T20:36:36;95528.22;;;-14.74;65.72
59829;BME280;45708;51.848;107.620;2024-03-06T20:41:36;95538.00;;;-14.65;66.26
59829;BME280;45708;51.848;107.620;2024-03-06T20:46:37;95541.66;;;-14.72;66.38
59829;BME280;45708;51.848;107.620;2024-03-06T20:51:43;95535.94;;;-14.78;66.21
59829;BME280;45708;51.848;107.620;2024-03-06T20:56:44;95540.34;;;-14.83;66.71
59829;BME280;45708;51.848;107.620;2024-03-06T21:01:45;95537.81;;;-14.83;66.77
59829;BME280;45708;51.848;107.620;2024-03-06T21:06:46;95540.41;;;-14.84;66.81
59829;BME280;45708;51.848;107.620;2024-03-06T21:11:46;95527.13;;;-14.91;66.03
59829;BME280;45708;51.848;107.620;2024-03-06T21:16:47;95528.13;;;-14.95;66.93
59829;BME280;45708;51.848;107.620;2024-03-06T21:21:48;95529.13;;;-14.99;66.31
59829;BME280;45708;51.848;107.620;2024-03-06T21:26:49;95524.47;;;-15.11;66.67
59829;BME280;45708;51.848;107.620;2024-03-06T21:31:50;95557.31;;;-15.08;65.93
59829;BME280;45708;51.848;107.620;2024-03-06T21:36:50;95558.31;;;-15.12;66.24
59829;BME280;45708;51.848;107.620;2024-03-06T21:41:51;95549.34;;;-15.22;66.50
59829;BME280;45708;51.848;107.620;2024-03-06T21:46:52;95556.19;;;-15.24;66.88
59829;BME280;45708;51.848;107.620;2024-03-06T21:51:53;95553.06;;;-15.31;67.21
59829;BME280;45708;51.848;107.620;2024-03-06T21:56:54;95552.34;;;-15.34;67.33
59829;BME280;45708;51.848;107.620;2024-03-06T22:01:55;95567.38;;;-15.30;67.33
59829;BME280;45708;51.848;107.620;2024-03-06T22:06:55;95547.50;;;-15.41;66.72
59829;BME280;45708;51.848;107.620;2024-03-06T22:11:57;95564.22;;;-15.37;66.43
59829;BME280;45708;51.848;107.620;2024-03-06T22:16:58;95556.81;;;-15.43;66.68
59829;BME280;45708;51.848;107.620;2024-03-06T22:21:59;95576.19;;;-15.42;67.45
59829;BME280;45708;51.848;107.620;2024-03-06T22:27:00;95585.47;;;-15.41;67.15
59829;BME280;45708;51.848;107.620;2024-03-06T22:32:00;95576.25;;;-15.43;67.42
59829;BME280;45708;51.848;107.620;2024-03-06T22:37:01;95566.59;;;-15.57;66.70
59829;BME280;45708;51.848;107.620;2024-03-06T22:42:02;95571.81;;;-15.60;66.85
59829;BME280;45708;51.848;107.620;2024-03-06T22:47:06;95565.09;;;-15.61;67.32
59829;BME280;45708;51.848;107.620;2024-03-06T22:52:06;95577.63;;;-15.58;66.58
59829;BME280;45708;51.848;107.620;2024-03-06T22:57:07;95581.94;;;-15.60;67.32
59829;BME280;45708;51.848;107.620;2024-03-06T23:02:08;95583.66;;;-15.62;66.57
59829;BME280;45708;51.848;107.620;2024-03-06T23:07:09;95571.66;;;-15.82;67.04
59829;BME280;45708;51.848;107.620;2024-03-06T23:12:10;95586.63;;;-15.74;67.28
59829;BME280;45708;51.848;107.620;2024-03-06T23:17:10;95585.84;;;-15.76;66.76
59829;BME280;45708;51.848;107.620;2024-03-06T23:22:11;95596.13;;;-15.82;67.28
59829;BME280;45708;51.848;107.620;2024-03-06T23:27:12;95597.81;;;-15.81;67.26
59829;BME280;45708;51.848;107.620;2024-03-06T23:32:13;95593.22;;;-15.70;67.22
59829;BME280;45708;51.848;107.620;2024-03-06T23:37:14;95596.88;;;-15.54;67.17
59829;BME280;45708;51.848;107.620;2024-03-06T23:42:15;95584.28;;;-15.30;66.95
59829;BME280;45708;51.848;107.620;2024-03-06T23:47:15;95593.50;;;-15.04;67.04
59829;BME280;45708;51.848;107.620;2024-03-06T23:52:16;95607.91;;;-14.82;67.10
59829;BME280;45708;51.848;107.620;2024-03-06T23:57:17;95622.16;;;-14.78;67.08
